createdAt,value
2018-09-20T00:00:30.506Z,12.70
2018-09-20T00:02:59.297Z,14.23
2018-09-20T00:05:28.106Z,12.77
2018-09-20T00:07:57.332Z,13.47
2018-09-20T00:10:26.171Z,14.63
2018-09-20T00:12:54.979Z,14.13
2018-09-20T00:15:23.811Z,14.20
2018-09-20T00:17:52.629Z,12.53
2018-09-20T00:20:21.491Z,12.93
2018-09-20T00:22:50.350Z,15.50
2018-09-20T00:25:19.162Z,11.23
2018-09-20T00:27:47.961Z,11.77
2018-09-20T00:30:17.134Z,11.97
2018-09-20T00:32:45.921Z,10.60
2018-09-20T00:35:14.718Z,14.28
2018-09-20T00:37:43.512Z,9.80
2018-09-20T00:40:12.314Z,10.23
2018-09-20T00:42:41.102Z,10.77
2018-09-20T00:45:09.944Z,11.00
2018-09-20T00:47:38.728Z,9.77
2018-09-20T00:50:09.142Z,9.80
2018-09-20T00:52:38.258Z,9.60
2018-09-20T00:55:08.725Z,9.58
2018-09-20T00:57:37.539Z,12.00
2018-09-20T01:00:08.201Z,9.23
2018-09-20T01:02:37.931Z,11.57
2018-09-20T01:05:07.929Z,11.00
2018-09-20T01:07:36.727Z,9.60
2018-09-20T01:10:05.604Z,9.90
2018-09-20T01:12:34.396Z,9.73
2018-09-20T01:15:03.587Z,9.87
2018-09-20T01:17:32.414Z,10.00
2018-09-20T01:20:01.211Z,9.83
2018-09-20T01:22:30.026Z,9.83
2018-09-20T01:24:58.838Z,10.40
2018-09-20T01:27:27.680Z,9.30
2018-09-20T01:29:56.496Z,8.97
2018-09-20T01:32:25.306Z,11.27
2018-09-20T01:34:54.094Z,9.67
2018-09-20T01:37:23.222Z,13.00
2018-09-20T01:39:52.047Z,9.37
2018-09-20T01:42:20.882Z,9.18
2018-09-20T01:44:49.748Z,10.20
2018-09-20T01:47:18.551Z,9.33
2018-09-20T01:49:47.362Z,7.43
2018-09-20T01:52:16.563Z,8.17
2018-09-20T01:54:45.346Z,6.53
2018-09-20T01:57:14.138Z,10.50
2018-09-20T01:59:43.394Z,8.10
2018-09-20T02:02:12.186Z,7.50
2018-09-20T02:04:41.012Z,8.07
2018-09-20T02:07:41.607Z,7.90
2018-09-20T02:10:10.409Z,6.57
2018-09-20T02:12:39.193Z,8.27
2018-09-20T02:15:09.019Z,7.90
2018-09-20T02:17:37.827Z,7.73
2018-09-20T02:20:08.486Z,7.70
2018-09-20T02:22:37.301Z,7.53
2018-09-20T02:25:06.357Z,7.50
2018-09-20T02:27:35.158Z,7.27
2018-09-20T02:30:03.971Z,6.83
2018-09-20T02:32:32.792Z,7.33
2018-09-20T02:35:01.648Z,9.40
2018-09-20T02:37:30.671Z,7.30
2018-09-20T02:39:59.481Z,6.97
2018-09-20T02:42:28.283Z,7.33
2018-09-20T02:44:57.126Z,8.93
2018-09-20T02:47:25.976Z,7.50
2018-09-20T02:49:54.790Z,7.57
2018-09-20T02:52:24.164Z,7.47
2018-09-20T02:54:52.985Z,10.33
2018-09-20T02:57:21.778Z,8.83
2018-09-20T02:59:50.777Z,8.37
2018-09-20T03:02:19.605Z,7.43
2018-09-20T03:04:48.403Z,6.23
2018-09-20T03:07:17.235Z,7.90
2018-09-20T03:09:46.124Z,8.27
2018-09-20T03:12:14.968Z,9.13
2018-09-20T03:14:43.786Z,7.53
2018-09-20T03:17:12.600Z,13.27
2018-09-20T03:19:41.497Z,9.77
2018-09-20T03:22:10.813Z,10.00
2018-09-20T03:24:39.626Z,8.00
2018-09-20T03:27:08.452Z,10.27
2018-09-20T03:29:37.316Z,9.23
2018-09-20T03:32:06.192Z,7.93
2018-09-20T03:34:35.522Z,8.70
2018-09-20T03:37:04.363Z,8.70
2018-09-20T03:39:33.138Z,8.67
2018-09-20T03:42:01.957Z,12.13
2018-09-20T03:44:31.243Z,10.80
2018-09-20T03:47:00.080Z,8.97
2018-09-20T03:49:28.888Z,8.00
2018-09-20T03:51:57.712Z,9.80
2018-09-20T03:54:27.132Z,12.00
2018-09-20T03:56:55.917Z,10.17
2018-09-20T03:59:24.768Z,10.63
2018-09-20T04:01:53.603Z,8.63
2018-09-20T04:04:22.415Z,7.83
2018-09-20T04:06:51.580Z,8.63
2018-09-20T04:09:20.353Z,11.27
2018-09-20T04:11:49.141Z,8.77
2018-09-20T04:14:17.938Z,9.60
2018-09-20T04:16:46.760Z,9.50
2018-09-20T04:19:15.565Z,9.40
2018-09-20T04:21:44.402Z,9.53
2018-09-20T04:24:13.182Z,9.57
2018-09-20T04:26:41.971Z,9.03
2018-09-20T04:29:11.279Z,12.30
2018-09-20T04:31:40.093Z,10.17
2018-09-20T04:34:08.924Z,9.83
2018-09-20T04:36:37.750Z,11.30
2018-09-20T04:39:09.088Z,10.00
2018-09-20T04:41:37.876Z,8.87
2018-09-20T04:44:06.714Z,12.43
2018-09-20T04:46:35.542Z,9.63
2018-09-20T04:49:04.553Z,12.40
2018-09-20T04:51:33.657Z,12.60
2018-09-20T04:54:02.486Z,9.23
2018-09-20T04:56:31.523Z,10.83
2018-09-20T04:59:00.326Z,10.60
2018-09-20T05:01:29.195Z,12.33
2018-09-20T05:03:58.040Z,10.20
2018-09-20T05:06:26.969Z,11.30
2018-09-20T05:08:55.990Z,10.10
2018-09-20T05:11:24.798Z,10.10
2018-09-20T05:13:54.227Z,11.53
2018-09-20T05:16:23.038Z,11.83
2018-09-20T05:18:51.881Z,10.40
2018-09-20T05:21:20.745Z,12.43
2018-09-20T05:23:49.683Z,10.10
2018-09-20T05:26:18.517Z,9.53
2018-09-20T05:28:47.360Z,10.57
2018-09-20T05:31:16.200Z,14.60
2018-09-20T05:33:45.052Z,21.27
2018-09-20T05:36:14.081Z,11.90
2018-09-20T05:38:42.928Z,12.50
2018-09-20T05:41:11.837Z,12.60
2018-09-20T05:43:40.667Z,15.27
2018-09-20T05:46:09.502Z,10.60
2018-09-20T05:48:38.343Z,17.23
2018-09-20T05:51:07.216Z,15.53
2018-09-20T05:53:36.103Z,15.30
2018-09-20T05:56:04.910Z,14.50
2018-09-20T05:58:34.929Z,19.97
2018-09-20T06:01:03.783Z,16.37
2018-09-20T06:03:32.610Z,12.20
2018-09-20T06:06:01.746Z,13.17
2018-09-20T06:08:30.579Z,17.07
2018-09-20T06:10:59.450Z,21.47
2018-09-20T06:13:28.306Z,17.73
2018-09-20T06:15:57.141Z,24.87
2018-09-20T06:18:26.123Z,13.93
2018-09-20T06:20:55.401Z,12.03
2018-09-20T06:23:24.241Z,15.17
2018-09-20T06:25:53.073Z,16.53
2018-09-20T06:28:22.531Z,18.67
2018-09-20T06:30:51.391Z,21.27
2018-09-20T06:33:20.231Z,16.80
2018-09-20T06:35:49.103Z,16.87
2018-09-20T06:38:17.960Z,15.60
2018-09-20T06:40:46.796Z,16.40
2018-09-20T06:43:16.027Z,17.90
2018-09-20T06:45:44.861Z,18.30
2018-09-20T06:48:13.718Z,17.83
2018-09-20T06:50:42.603Z,19.23
2018-09-20T06:53:11.421Z,19.47
2018-09-20T06:55:40.262Z,20.80
2018-09-20T06:58:09.094Z,15.93
2018-09-20T07:00:38.163Z,20.43
2018-09-20T07:03:07.036Z,20.47
2018-09-20T07:05:36.333Z,19.33
2018-09-20T07:08:05.145Z,20.73
2018-09-20T07:10:33.994Z,19.63
2018-09-20T07:13:02.837Z,22.17
2018-09-20T07:15:31.666Z,25.37
2018-09-20T07:18:00.525Z,19.57
2018-09-20T07:20:29.361Z,20.90
2018-09-20T07:22:58.224Z,16.47
2018-09-20T07:25:27.052Z,15.10
2018-09-20T07:27:56.142Z,15.10
2018-09-20T07:30:24.946Z,13.93
2018-09-20T07:32:53.815Z,13.20
2018-09-20T07:35:22.614Z,12.70
2018-09-20T07:37:51.460Z,14.97
2018-09-20T07:40:20.326Z,12.83
2018-09-20T07:42:49.169Z,15.10
2018-09-20T07:45:18.041Z,19.83
2018-09-20T07:47:46.920Z,15.63
2018-09-20T07:50:15.993Z,12.27
2018-09-20T07:52:44.798Z,16.07
2018-09-20T07:55:13.606Z,18.55
2018-09-20T07:57:42.462Z,17.87
2018-09-20T08:00:11.294Z,11.60
2018-09-20T08:02:40.615Z,11.50
2018-09-20T08:05:09.505Z,12.53
2018-09-20T08:07:38.309Z,15.20
2018-09-20T08:10:08.313Z,15.17
2018-09-20T08:12:37.505Z,13.63
2018-09-20T08:15:07.487Z,14.13
2018-09-20T08:17:36.418Z,12.63
2018-09-20T08:20:05.628Z,9.03
2018-09-20T08:22:34.477Z,16.30
2018-09-20T08:25:03.313Z,11.97
2018-09-20T08:27:32.203Z,7.97
2018-09-20T08:30:01.034Z,13.83
2018-09-20T08:32:29.956Z,13.70
2018-09-20T08:34:59.283Z,10.17
2018-09-20T08:37:28.474Z,6.40
2018-09-20T08:39:57.407Z,9.87
2018-09-20T08:42:26.239Z,8.23
2018-09-20T08:44:55.102Z,8.53
2018-09-20T08:47:23.909Z,9.43
2018-09-20T08:49:52.728Z,8.07
2018-09-20T08:52:21.860Z,10.87
2018-09-20T08:54:50.711Z,8.60
2018-09-20T08:57:20.050Z,4.40
2018-09-20T08:59:48.811Z,10.83
2018-09-20T09:02:17.638Z,8.53
2018-09-20T09:04:46.774Z,9.80
2018-09-20T09:07:15.786Z,10.90
2018-09-20T09:09:44.667Z,6.10
2018-09-20T09:12:13.523Z,10.37
2018-09-20T09:14:42.319Z,6.67
2018-09-20T09:17:11.176Z,6.47
2018-09-20T09:19:40.244Z,7.63
2018-09-20T09:22:09.028Z,10.83
2018-09-20T09:24:37.836Z,12.20
2018-09-20T09:27:06.671Z,10.00
2018-09-20T09:29:35.461Z,6.67
2018-09-20T09:32:04.279Z,7.33
2018-09-20T09:34:33.113Z,12.70
2018-09-20T09:37:01.926Z,9.13
2018-09-20T09:39:30.747Z,7.17
2018-09-20T09:41:59.851Z,10.00
2018-09-20T09:44:28.677Z,7.83
2018-09-20T09:46:57.487Z,9.57
2018-09-20T09:49:26.369Z,7.70
2018-09-20T09:51:55.174Z,10.40
2018-09-20T09:54:27.016Z,6.20
2018-09-20T09:56:55.934Z,9.00
2018-09-20T09:59:24.751Z,12.10
2018-09-20T10:01:53.667Z,10.13
2018-09-20T10:04:22.751Z,7.33
2018-09-20T10:06:52.091Z,6.30
2018-09-20T10:09:20.919Z,11.17
2018-09-20T10:11:55.580Z,6.63
2018-09-20T10:14:24.397Z,11.43
2018-09-20T10:16:53.430Z,8.47
2018-09-20T10:19:22.256Z,5.42
2018-09-20T10:21:51.064Z,8.13
2018-09-20T10:24:19.862Z,10.70
2018-09-20T10:26:49.299Z,9.33
2018-09-20T10:29:18.250Z,6.97
2018-09-20T10:31:47.110Z,7.47
2018-09-20T10:34:15.934Z,10.82
2018-09-20T10:36:44.774Z,8.35
2018-09-20T10:39:14.399Z,5.40
2018-09-20T10:41:43.371Z,8.33
2018-09-20T10:44:12.183Z,10.73
2018-09-20T10:46:41.097Z,11.30
2018-09-20T10:49:10.231Z,8.30
2018-09-20T10:51:39.066Z,8.40
2018-09-20T10:54:07.873Z,9.60
2018-09-20T10:56:36.710Z,7.95
2018-09-20T10:59:05.511Z,9.58
2018-09-20T11:01:34.408Z,7.10
2018-09-20T11:04:03.269Z,10.32
2018-09-20T11:06:32.084Z,6.87
2018-09-20T11:09:01.334Z,8.93
2018-09-20T11:11:30.574Z,9.43
2018-09-20T11:13:59.375Z,8.25
2018-09-20T11:16:28.161Z,9.18
2018-09-20T11:18:56.989Z,7.37
2018-09-20T11:21:25.799Z,9.18
2018-09-20T11:23:54.623Z,7.78
2018-09-20T11:26:23.464Z,8.98
2018-09-20T11:28:52.326Z,6.47
2018-09-20T11:31:21.230Z,7.55
2018-09-20T11:33:50.384Z,8.33
2018-09-20T11:36:19.207Z,9.00
2018-09-20T11:38:48.104Z,10.75
2018-09-20T11:41:17.676Z,9.18
2018-09-20T11:43:46.536Z,9.65
2018-09-20T11:46:15.501Z,8.30
2018-09-20T11:48:44.393Z,7.17
2018-09-20T11:51:13.231Z,5.37
2018-09-20T11:53:42.071Z,10.13
2018-09-20T11:56:11.281Z,14.07
2018-09-20T11:58:40.110Z,8.55
2018-09-20T12:01:09.001Z,9.85
2018-09-20T12:03:37.841Z,6.55
2018-09-20T12:06:06.651Z,10.50
2018-09-20T12:08:35.452Z,7.62
2018-09-20T12:11:04.490Z,14.45
2018-09-20T12:13:33.278Z,12.28
2018-09-20T12:16:02.062Z,6.78
2018-09-20T12:18:31.482Z,7.25
2018-09-20T12:21:00.536Z,7.75
2018-09-20T12:23:29.337Z,11.15
2018-09-20T12:25:58.222Z,8.45
2018-09-20T12:28:27.064Z,9.78
2018-09-20T12:30:55.875Z,7.22
2018-09-20T12:33:24.713Z,6.50
2018-09-20T12:35:53.626Z,9.68
2018-09-20T12:38:22.365Z,12.07
2018-09-20T12:40:51.567Z,7.95
2018-09-20T12:43:20.403Z,14.07
2018-09-20T12:45:49.317Z,16.93
2018-09-20T12:48:18.141Z,14.38
2018-09-20T12:50:46.936Z,33.78
2018-09-20T12:53:15.718Z,7.47
2018-09-20T12:55:44.579Z,8.68
2018-09-20T12:58:13.436Z,5.50
2018-09-20T13:00:42.299Z,7.03
2018-09-20T13:03:11.214Z,9.65
2018-09-20T13:05:40.031Z,8.88
2018-09-20T13:08:08.829Z,13.38
2018-09-20T13:10:37.680Z,15.18
2018-09-20T13:13:07.155Z,7.17
2018-09-20T13:15:36.163Z,9.30
2018-09-20T13:18:05.097Z,9.60
2018-09-20T13:20:33.945Z,8.45
2018-09-20T13:23:02.767Z,10.35
2018-09-20T13:25:32.995Z,11.95
2018-09-20T13:28:01.754Z,11.65
2018-09-20T13:30:30.631Z,10.45
2018-09-20T13:32:59.462Z,11.83
2018-09-20T13:35:28.285Z,6.33
2018-09-20T13:37:57.472Z,9.55
2018-09-20T13:40:26.410Z,13.67
2018-09-20T13:42:55.266Z,9.15
2018-09-20T13:45:24.063Z,14.65
2018-09-20T13:47:53.346Z,8.65
2018-09-20T13:50:22.266Z,8.98
2018-09-20T13:52:51.134Z,6.60
2018-09-20T13:55:20.463Z,9.30
2018-09-20T13:57:49.303Z,8.63
2018-09-20T14:00:18.138Z,17.37
2018-09-20T14:02:47.084Z,11.93
2018-09-20T14:05:16.330Z,14.00
2018-09-20T14:07:45.185Z,13.83
2018-09-20T14:10:14.489Z,9.50
2018-09-20T14:12:43.301Z,7.47
2018-09-20T14:15:12.506Z,11.97
2018-09-20T14:17:41.455Z,8.60
2018-09-20T14:20:10.275Z,9.68
2018-09-20T14:22:39.078Z,12.90
2018-09-20T14:25:09.164Z,10.10
2018-09-20T14:27:37.987Z,6.62
2018-09-20T14:30:08.969Z,9.36
2018-09-20T14:32:38.305Z,9.08
2018-09-20T14:35:08.888Z,7.98
2018-09-20T14:37:37.695Z,8.28
2018-09-20T14:40:08.675Z,9.24
2018-09-20T14:42:37.496Z,10.60
2018-09-20T14:45:08.488Z,17.30
2018-09-20T14:47:37.444Z,10.55
2018-09-20T14:50:06.399Z,17.60
2018-09-20T14:52:35.374Z,7.25
2018-09-20T14:55:04.671Z,9.65
2018-09-20T14:57:33.621Z,7.75
2018-09-20T15:00:02.548Z,5.58
2018-09-20T15:02:31.367Z,7.97
2018-09-20T15:05:00.193Z,8.45
2018-09-20T15:07:29.039Z,13.22
2018-09-20T15:09:57.932Z,11.40
2018-09-20T15:12:26.738Z,7.62
2018-09-20T15:14:55.658Z,12.50
2018-09-20T15:17:25.714Z,11.20
2018-09-20T15:19:54.568Z,7.53
2018-09-20T15:22:23.363Z,20.52
2018-09-20T15:24:52.233Z,10.58
2018-09-20T15:27:21.123Z,9.93
2018-09-20T15:29:50.026Z,7.72
2018-09-20T15:32:18.834Z,8.55
2018-09-20T15:34:47.635Z,8.73
2018-09-20T15:37:16.461Z,6.70
2018-09-20T15:39:45.468Z,5.58
2018-09-20T15:42:14.307Z,8.80
2018-09-20T15:44:43.120Z,8.58
2018-09-20T15:47:12.009Z,9.55
2018-09-20T15:49:40.771Z,9.20
2018-09-20T15:52:09.743Z,9.88
2018-09-20T15:54:38.710Z,5.42
2018-09-20T15:57:07.698Z,8.83
2018-09-20T15:59:36.503Z,12.43
2018-09-20T16:02:05.918Z,5.92
2018-09-20T16:04:34.711Z,7.37
2018-09-20T16:07:03.533Z,12.40
2018-09-20T16:09:32.353Z,10.63
2018-09-20T16:12:01.185Z,8.55
2018-09-20T16:14:30.052Z,8.43
2018-09-20T16:16:58.866Z,12.30
2018-09-20T16:19:28.138Z,8.88
2018-09-20T16:21:57.160Z,5.30
2018-09-20T16:24:26.467Z,9.85
2018-09-20T16:26:55.275Z,7.80
2018-09-20T16:29:34.857Z,8.10
2018-09-20T16:32:21.275Z,6.78
2018-09-20T16:35:37.893Z,6.00
2018-09-20T16:38:27.143Z,13.78
2018-09-20T16:40:59.315Z,6.17
2018-09-20T16:43:28.154Z,6.70
2018-09-20T16:45:56.979Z,6.58
2018-09-20T16:48:25.905Z,7.42
2018-09-20T16:50:54.717Z,6.72
2018-09-20T16:53:24.015Z,10.80
2018-09-20T16:55:52.755Z,6.95
2018-09-20T16:58:21.595Z,10.58
2018-09-20T17:00:50.800Z,10.05
2018-09-20T17:03:20.004Z,10.25
2018-09-20T17:05:48.852Z,10.03
2018-09-20T17:08:17.665Z,17.17
2018-09-20T17:10:46.548Z,12.28
2018-09-20T17:13:15.945Z,10.60
2018-09-20T17:15:44.723Z,13.50
2018-09-20T17:18:13.555Z,16.00
2018-09-20T17:20:42.970Z,13.35
2018-09-20T17:23:11.750Z,13.40
2018-09-20T17:25:40.968Z,10.45
2018-09-20T17:28:09.780Z,12.98
2018-09-20T17:30:38.695Z,22.82
2018-09-20T17:33:07.540Z,20.72
2018-09-20T17:38:15.122Z,15.93
2018-09-20T17:40:45.973Z,17.12
2018-09-20T17:43:18.249Z,13.65
2018-09-20T17:45:47.065Z,18.62
2018-09-20T17:48:15.899Z,16.27
2018-09-20T17:50:44.735Z,19.60
2018-09-20T17:53:13.879Z,16.62
2018-09-20T17:55:43.249Z,23.47
2018-09-20T17:58:12.589Z,25.33
2018-09-20T18:00:41.465Z,21.62
2018-09-20T18:03:10.337Z,24.63
2018-09-20T18:05:39.611Z,17.25
2018-09-20T18:08:08.473Z,29.60
2018-09-20T18:10:37.300Z,24.00
2018-09-20T18:13:06.669Z,22.40
2018-09-20T18:15:35.494Z,25.52
2018-09-20T18:18:04.543Z,21.60
2018-09-20T18:20:33.200Z,24.60
2018-09-20T18:23:02.595Z,19.80
2018-09-20T18:25:31.445Z,27.62
2018-09-20T18:28:00.717Z,18.13
2018-09-20T18:30:29.542Z,20.10
2018-09-20T18:32:58.413Z,22.13
2018-09-20T18:35:27.235Z,24.93
2018-09-20T18:37:56.065Z,20.80
2018-09-20T18:40:24.936Z,24.90
2018-09-20T18:42:53.765Z,28.47
2018-09-20T18:45:22.635Z,21.03
2018-09-20T18:47:51.509Z,19.67
2018-09-20T18:50:20.815Z,21.23
2018-09-20T18:52:49.663Z,22.13
2018-09-20T18:55:18.536Z,23.17
2018-09-20T18:57:47.326Z,25.37
2018-09-20T19:00:16.202Z,25.83
2018-09-20T19:02:45.056Z,19.00
2018-09-20T19:05:13.874Z,26.03
2018-09-20T19:07:42.809Z,25.27
2018-09-20T19:10:11.599Z,23.70
2018-09-20T19:12:40.815Z,22.23
2018-09-20T19:15:10.426Z,26.00
2018-09-20T19:17:39.306Z,35.90
2018-09-20T19:20:09.093Z,28.90
2018-09-20T19:22:37.922Z,29.60
2018-09-20T19:25:09.122Z,27.70
2018-09-20T19:27:38.390Z,28.33
2018-09-20T19:30:09.081Z,35.15
2018-09-20T19:32:37.887Z,34.87
2018-09-20T19:35:08.697Z,30.02
2018-09-20T19:37:37.524Z,26.80
2018-09-20T19:40:07.257Z,24.80
2018-09-20T19:42:36.073Z,28.77
2018-09-20T19:45:04.963Z,31.53
2018-09-20T19:47:33.794Z,28.90
2018-09-20T19:50:02.647Z,29.40
2018-09-20T19:52:31.491Z,30.50
2018-09-20T19:55:00.383Z,42.30
2018-09-20T19:57:29.301Z,29.37
2018-09-20T19:59:58.120Z,26.60
2018-09-20T20:02:33.544Z,32.33
2018-09-20T20:05:02.344Z,28.70
2018-09-20T20:07:31.224Z,32.37
2018-09-20T20:10:00.115Z,25.20
2018-09-20T20:12:28.929Z,36.50
2018-09-20T20:14:57.760Z,34.97
2018-09-20T20:17:26.845Z,42.60
2018-09-20T20:19:55.751Z,40.80
2018-09-20T20:22:24.576Z,34.70
2018-09-20T20:24:53.369Z,37.40
2018-09-20T20:27:22.674Z,36.87
2018-09-20T20:29:51.519Z,29.90
2018-09-20T20:32:20.374Z,32.67
2018-09-20T20:34:49.270Z,33.23
2018-09-20T20:37:18.103Z,28.43
2018-09-20T20:39:47.342Z,31.03
2018-09-20T20:42:16.129Z,28.83
2018-09-20T20:44:44.964Z,31.30
2018-09-20T20:47:13.782Z,27.37
2018-09-20T20:49:42.614Z,31.30
2018-09-20T20:52:11.449Z,28.03
2018-09-20T20:54:40.311Z,26.67
2018-09-20T20:57:09.247Z,29.00
2018-09-20T20:59:38.230Z,26.83
2018-09-20T21:02:07.450Z,29.73
2018-09-20T21:04:36.268Z,31.57
2018-09-20T21:07:05.100Z,25.07
2018-09-20T21:09:33.918Z,27.00
2018-09-20T21:12:02.721Z,38.30
2018-09-20T21:14:31.583Z,30.70
2018-09-20T21:17:00.421Z,27.87
2018-09-20T21:19:29.269Z,28.53
2018-09-20T21:21:58.066Z,26.97
2018-09-20T21:24:27.472Z,28.30
2018-09-20T21:26:56.271Z,28.83
2018-09-20T21:29:25.530Z,30.20
2018-09-20T21:31:54.349Z,27.37
2018-09-20T21:34:23.175Z,27.97
2018-09-20T21:36:51.995Z,26.80
2018-09-20T21:39:20.829Z,26.30
2018-09-20T21:41:49.652Z,24.07
2018-09-20T21:44:18.487Z,21.17
2018-09-20T21:46:47.789Z,21.90
2018-09-20T21:49:16.622Z,24.40
2018-09-20T21:51:45.441Z,24.33
2018-09-20T21:54:14.253Z,25.97
2018-09-20T21:56:43.173Z,24.98
2018-09-20T21:59:11.978Z,24.47
2018-09-20T22:01:46.154Z,24.20
2018-09-20T22:04:15.009Z,22.40
2018-09-20T22:06:43.822Z,25.57
2018-09-20T22:09:13.508Z,17.40
2018-09-20T22:11:42.349Z,17.60
2018-09-20T22:14:11.189Z,18.20
2018-09-20T22:16:40.126Z,17.17
2018-09-20T22:19:08.929Z,18.57
2018-09-20T22:21:37.761Z,20.93
2018-09-20T22:24:06.575Z,16.30
2018-09-20T22:26:35.414Z,20.87
2018-09-20T22:29:04.227Z,18.27
2018-09-20T22:31:33.956Z,18.33
2018-09-20T22:34:02.777Z,14.97
2018-09-20T22:36:31.589Z,16.30
2018-09-20T22:39:00.429Z,17.43
2018-09-20T22:41:29.226Z,14.83
2018-09-20T22:43:58.052Z,16.60
2018-09-20T22:46:26.893Z,15.33
2018-09-20T22:48:55.713Z,16.90
2018-09-20T22:51:24.554Z,15.00
2018-09-20T22:53:53.776Z,14.43
2018-09-20T22:56:22.609Z,14.07
2018-09-20T22:58:51.437Z,16.50
2018-09-20T23:01:20.283Z,17.73
2018-09-20T23:03:49.116Z,15.20
2018-09-20T23:06:17.936Z,15.73
2018-09-20T23:08:46.759Z,14.37
2018-09-20T23:11:15.587Z,16.70
2018-09-20T23:13:44.413Z,13.33
2018-09-20T23:16:13.697Z,15.97
2018-09-20T23:18:42.551Z,15.03
2018-09-20T23:21:11.389Z,14.23
2018-09-20T23:23:40.229Z,14.63
2018-09-20T23:26:09.081Z,10.60
2018-09-20T23:28:37.923Z,15.30
2018-09-20T23:31:06.795Z,16.57
2018-09-20T23:33:36.053Z,13.30
2018-09-20T23:36:04.883Z,13.00
2018-09-20T23:38:34.009Z,13.10
2018-09-20T23:41:02.829Z,13.53
2018-09-20T23:43:31.635Z,18.40
2018-09-20T23:46:00.514Z,10.23
2018-09-20T23:48:29.351Z,12.63
2018-09-20T23:50:58.175Z,12.37
2018-09-20T23:53:26.981Z,13.33
2018-09-20T23:55:55.850Z,10.47
2018-09-20T23:58:24.648Z,12.43
